Time;durP1;ratioP1;P1;durP2;ratioP2;P2;SDS_P1;SDS_P2;PMS_P1;PMS_P2;Temp;Humidity;BMP_temperature;BMP_pressure;BME280_temperature;BME280_humidity;BME280_pressure;Samples;Min_cycle;Max_cycle;Signal;HPM_P1;HPM_P2
2023/07/12 00:00:49;;;;;;;;;3.75;3.75;;;;;27.52;42.99;100703.69;4937339;28;45321;-43
2023/07/12 00:03:16;;;;;;;;;3.25;3.25;;;;;27.50;43.08;100701.16;4938370;28;45760;-38
2023/07/12 00:05:43;;;;;;;;;2.25;2.25;;;;;27.52;43.20;100709.00;4940042;28;45542;-44
2023/07/12 00:08:17;;;;;;;;;4.00;4.00;;;;;27.51;43.08;100702.84;4939973;28;45246;-36
2023/07/12 00:10:43;;;;;;;;;4.25;4.00;;;;;27.50;43.28;100701.16;4939409;28;47236;-44
2023/07/12 00:13:10;;;;;;;;;3.00;3.00;;;;;27.51;43.02;100712.66;4939633;28;45214;-45
2023/07/12 00:15:36;;;;;;;;;2.25;2.25;;;;;27.53;43.12;100711.56;4939640;28;45534;-35
2023/07/12 00:18:02;;;;;;;;;3.75;3.25;;;;;27.50;43.11;100714.47;4939791;28;45484;-39
2023/07/12 00:20:35;;;;;;;;;3.00;3.00;;;;;27.52;43.04;100715.19;4939441;28;45420;-34
2023/07/12 00:23:01;;;;;;;;;3.00;3.00;;;;;27.52;42.83;100712.53;4939466;28;45636;-42
2023/07/12 00:25:32;;;;;;;;;3.00;3.00;;;;;27.51;43.01;100712.66;4939820;28;45201;-36
2023/07/12 00:27:59;;;;;;;;;2.75;2.75;;;;;27.52;43.06;100717.84;4954862;28;45470;-37
2023/07/12 00:30:30;;;;;;;;;3.00;3.00;;;;;27.53;43.13;100726.66;4939526;28;45536;-34
2023/07/12 00:33:02;;;;;;;;;4.50;3.50;;;;;27.53;43.29;100724.00;4939463;28;45309;-39
2023/07/12 00:35:28;;;;;;;;;2.00;2.00;;;;;27.52;43.11;100724.97;4939361;28;45300;-40
2023/07/12 00:37:56;;;;;;;;;2.00;2.00;;;;;27.52;43.02;100717.84;4939514;28;45587;-37
2023/07/12 00:40:49;;;;;;;;;4.75;4.00;;;;;27.54;43.00;100723.03;4900184;28;1149795;-40
2023/07/12 00:43:20;;;;;;;;;2.50;2.00;;;;;27.52;43.11;100722.31;4940203;28;45396;-38
2023/07/12 00:45:48;;;;;;;;;3.00;3.00;;;;;27.50;42.84;100719.81;4940215;28;45737;-42
2023/07/12 00:48:14;;;;;;;;;3.00;3.00;;;;;27.53;43.25;100716.03;4940337;28;45659;-42
2023/07/12 00:50:40;;;;;;;;;3.00;3.00;;;;;27.52;43.09;100722.31;4939970;28;46730;-44
2023/07/12 00:53:12;;;;;;;;;4.00;2.75;;;;;27.52;43.23;100730.31;4939920;28;45743;-41
2023/07/12 00:55:59;;;;;;;;;3.00;3.00;;;;;27.52;43.21;100727.63;4939981;28;45405;-43
2023/07/12 00:58:29;;;;;;;;;3.00;3.00;;;;;27.51;42.65;100728.63;4940005;28;45337;-41
2023/07/12 01:00:57;;;;;;;;;2.00;2.00;;;;;27.49;43.28;100723.44;4939790;28;46817;-43
2023/07/12 01:03:24;;;;;;;;;2.50;2.50;;;;;27.49;42.84;100726.09;4939820;28;45325;-45
2023/07/12 01:05:50;;;;;;;;;5.00;3.25;;;;;27.45;42.98;100714.88;4939884;28;45390;-45
2023/07/12 01:08:16;;;;;;;;;3.00;3.00;;;;;27.49;43.01;100723.44;4940190;28;45671;-43
2023/07/12 01:10:42;;;;;;;;;3.50;3.00;;;;;27.50;43.04;100726.97;4939531;28;45370;-44
2023/07/12 01:13:09;;;;;;;;;3.25;2.00;;;;;27.49;43.14;100723.44;4939483;28;45360;-41
2023/07/12 01:15:35;;;;;;;;;2.25;2.25;;;;;27.51;43.12;100733.94;4939694;28;45305;-43
2023/07/12 01:18:03;;;;;;;;;2.75;2.50;;;;;27.51;43.03;100732.13;4940260;28;45165;-37
2023/07/12 01:20:35;;;;;;;;;3.00;2.00;;;;;27.51;43.20;100736.59;4939899;28;45449;-40
2023/07/12 01:23:02;;;;;;;;;2.75;2.75;;;;;27.52;42.95;100746.28;4939922;28;45332;-36
2023/07/12 01:25:38;;;;;;;;;2.25;2.25;;;;;27.51;43.12;100755.22;4939976;28;45283;-49
2023/07/12 01:28:04;;;;;;;;;2.00;2.00;;;;;27.51;43.04;100744.59;4939691;28;45671;-45
2023/07/12 01:30:30;;;;;;;;;4.75;2.25;;;;;27.51;43.14;100747.25;4939636;28;45575;-46
2023/07/12 01:32:55;;;;;;;;;2.00;2.00;;;;;27.50;43.18;100746.41;4939469;28;45339;-45
2023/07/12 01:35:20;;;;;;;;;2.00;2.00;;;;;27.51;43.01;100747.25;4939350;28;45782;-39
2023/07/12 01:37:46;;;;;;;;;4.25;3.00;;;;;27.52;42.92;100746.28;4939480;28;45609;-41
2023/07/12 01:40:12;;;;;;;;;2.00;2.00;;;;;27.52;42.99;100739.16;4939054;28;46225;-37
2023/07/12 01:42:37;;;;;;;;;2.00;2.00;;;;;27.50;42.97;100738.44;4939182;28;45301;-38
2023/07/12 01:45:03;;;;;;;;;2.75;2.75;;;;;27.50;42.95;100749.06;4939649;28;45404;-42
2023/07/12 01:47:29;;;;;;;;;3.50;1.25;;;;;27.51;42.95;100749.91;4939778;28;45615;-42
2023/07/12 01:49:54;;;;;;;;;3.00;1.75;;;;;27.51;42.83;100755.22;4939110;28;45444;-42
2023/07/12 01:52:19;;;;;;;;;2.00;1.00;;;;;27.49;42.72;100751.88;4938505;28;59103;-41
2023/07/12 01:54:45;;;;;;;;;2.00;2.00;;;;;27.51;42.83;100755.22;4939029;28;45401;-42
2023/07/12 01:57:10;;;;;;;;;0.00;0.00;;;;;27.50;42.71;100748.25;4939348;28;45747;-37
2023/07/12 01:59:36;;;;;;;;;1.00;1.00;;;;;27.50;42.57;100751.75;4939033;28;46341;-36
2023/07/12 02:02:01;;;;;;;;;1.00;1.00;;;;;27.49;42.77;100762.53;4937991;28;45393;-44
2023/07/12 02:04:26;;;;;;;;;1.25;1.25;;;;;27.50;42.87;100764.22;4939067;28;45191;-43
2023/07/12 02:06:51;;;;;;;;;1.50;1.50;;;;;27.50;42.50;100764.22;4939200;28;45225;-40
2023/07/12 02:09:17;;;;;;;;;1.50;1.25;;;;;27.50;42.75;100761.56;4938789;28;46585;-43
2023/07/12 02:11:42;;;;;;;;;1.00;1.00;;;;;27.50;42.77;100772.22;4938879;28;45382;-44
2023/07/12 02:14:07;;;;;;;;;1.75;1.00;;;;;27.50;42.47;100772.22;4938604;28;52161;-40
2023/07/12 02:16:33;;;;;;;;;1.25;1.25;;;;;27.49;42.27;100781.16;4939274;28;45726;-47
2023/07/12 02:18:58;;;;;;;;;1.75;1.75;;;;;27.46;42.40;100775.13;4937412;28;47484;-46
2023/07/12 02:21:23;;;;;;;;;1.00;1.00;;;;;27.48;42.50;100772.31;4938682;28;45472;-47
2023/07/12 02:23:49;;;;;;;;;1.00;1.00;;;;;27.46;42.04;100780.44;4938048;28;45321;-45
2023/07/12 02:26:14;;;;;;;;;1.00;1.00;;;;;27.47;42.31;100783.94;4938754;28;45476;-45
2023/07/12 02:28:40;;;;;;;;;0.50;0.50;;;;;27.48;42.34;100792.78;4938540;28;46659;-41
2023/07/12 02:31:19;;;;;;;;;2.00;1.00;;;;;27.46;41.60;100785.78;4937547;28;45431;-41
2023/07/12 02:33:45;;;;;;;;;1.00;1.00;;;;;27.46;42.10;100784.91;4938595;28;45273;-41
2023/07/12 02:36:10;;;;;;;;;0.75;0.75;;;;;27.47;42.31;100789.25;4937280;28;45258;-40
2023/07/12 02:38:35;;;;;;;;;0.00;0.00;;;;;27.46;42.06;100796.41;4937348;28;45314;-40
2023/07/12 02:41:01;;;;;;;;;1.00;0.00;;;;;27.46;42.15;100791.09;4938480;28;45229;-41
2023/07/12 02:43:26;;;;;;;;;0.00;0.00;;;;;27.45;42.16;100797.41;4938572;28;45155;-40
2023/07/12 02:45:51;;;;;;;;;0.50;0.50;;;;;27.46;41.73;100800.88;4938118;28;50357;-41
2023/07/12 02:48:16;;;;;;;;;0.25;0.00;;;;;27.44;42.07;100803.69;4937967;28;55518;-44
2023/07/12 02:50:42;;;;;;;;;0.00;0.00;;;;;27.43;42.25;100801.97;4936410;28;54668;-42
2023/07/12 02:53:17;;;;;;;;;0.00;0.00;;;;;27.43;41.76;100804.63;4938714;28;45357;-38
2023/07/12 02:55:43;;;;;;;;;0.25;0.25;;;;;27.42;42.02;100805.59;4938405;28;45537;-39
2023/07/12 02:58:08;;;;;;;;;0.00;0.00;;;;;27.43;41.74;100811.78;4938234;28;45334;-45
2023/07/12 03:00:34;;;;;;;;;0.00;0.00;;;;;27.41;41.76;100809.22;4938468;28;45829;-37
2023/07/12 03:02:59;;;;;;;;;0.00;0.00;;;;;27.42;41.89;100815.41;4938244;28;45787;-40
2023/07/12 03:05:24;;;;;;;;;0.50;0.00;;;;;27.38;41.67;100817.50;4938402;28;45674;-45
2023/07/12 03:07:52;;;;;;;;;0.25;0.25;;;;;27.37;41.58;100812.28;4937591;28;58533;-38
2023/07/12 03:10:18;;;;;;;;;1.00;0.00;;;;;27.34;41.57;100818.72;4938104;28;45415;-42
2023/07/12 03:12:43;;;;;;;;;0.00;0.00;;;;;27.30;41.52;100817.28;4938196;28;45299;-41
2023/07/12 03:15:09;;;;;;;;;0.00;0.00;;;;;27.25;41.57;100811.53;4938484;28;45708;-50
2023/07/12 03:17:34;;;;;;;;;0.00;0.00;;;;;27.22;41.68;100809.13;4938167;28;45464;-51
2023/07/12 03:19:59;;;;;;;;;0.00;0.00;;;;;27.17;41.59;100815.66;4938030;28;45284;-47
2023/07/12 03:22:25;;;;;;;;;1.00;0.00;;;;;27.14;41.48;100817.75;4938072;28;45352;-47
2023/07/12 03:24:50;;;;;;;;;0.00;0.00;;;;;27.13;41.60;100826.69;4938306;28;45468;-49
2023/07/12 03:27:16;;;;;;;;;0.50;0.00;;;;;27.11;41.57;100820.69;4937294;28;59862;-43
2023/07/12 03:29:42;;;;;;;;;0.00;0.00;;;;;27.09;41.60;100831.44;4938016;28;45477;-41
2023/07/12 03:32:08;;;;;;;;;1.75;0.00;;;;;27.07;41.54;100836.03;4936936;28;45436;-51
2023/07/12 03:34:33;;;;;;;;;2.00;0.00;;;;;27.03;41.44;100829.31;4938632;28;45312;-48
2023/07/12 03:37:00;;;;;;;;;1.00;0.00;;;;;27.03;41.10;100833.75;4941203;28;45434;-49
2023/07/12 03:39:26;;;;;;;;;0.00;0.00;;;;;26.99;41.52;100830.50;4940892;28;45481;-49
2023/07/12 03:41:51;;;;;;;;;1.00;1.00;;;;;26.96;41.43;100825.44;4941220;28;45335;-46
2023/07/12 03:44:16;;;;;;;;;0.00;0.00;;;;;26.92;41.75;100827.53;4941323;28;45355;-48
2023/07/12 03:46:42;;;;;;;;;0.75;0.00;;;;;26.91;41.76;100827.66;4940851;28;46489;-42
2023/07/12 03:49:07;;;;;;;;;0.00;0.00;;;;;26.84;41.50;100830.81;4941284;28;45325;-50
2023/07/12 03:51:32;;;;;;;;;0.00;0.00;;;;;26.83;41.86;100837.13;4939708;28;45404;-42
2023/07/12 03:53:58;;;;;;;;;1.00;1.00;;;;;26.80;41.36;100831.19;4939970;28;45352;-51
2023/07/12 03:56:23;;;;;;;;;0.00;0.00;;;;;26.81;41.41;100840.88;4940680;28;45403;-48
2023/07/12 03:58:49;;;;;;;;;0.00;0.00;;;;;26.79;41.20;100850.81;4940351;28;55129;-49
2023/07/12 04:01:14;;;;;;;;;0.75;0.00;;;;;26.77;40.98;100847.38;4940767;28;45177;-43
2023/07/12 04:03:40;;;;;;;;;1.00;0.25;;;;;26.75;40.94;100844.84;4941390;28;45518;-44
2023/07/12 04:06:07;;;;;;;;;1.00;1.00;;;;;26.75;41.07;100849.31;4940592;28;45282;-45
2023/07/12 04:08:33;;;;;;;;;0.00;0.00;;;;;26.72;40.98;100850.44;4940656;28;45669;-49
2023/07/12 04:10:59;;;;;;;;;0.50;0.50;;;;;26.72;41.00;100863.72;4955608;28;45313;-46
2023/07/12 04:13:26;;;;;;;;;2.00;1.00;;;;;26.70;41.10;100860.34;4940961;28;45542;-46
2023/07/12 04:15:54;;;;;;;;;1.00;1.00;;;;;26.69;40.82;100856.00;4940270;28;46659;-47
2023/07/12 04:18:19;;;;;;;;;0.00;0.00;;;;;26.66;40.38;100853.56;4939275;28;45301;-51
2023/07/12 04:20:45;;;;;;;;;1.00;1.00;;;;;26.65;40.41;100859.84;4940618;28;45235;-53
2023/07/12 04:23:10;;;;;;;;;0.75;0.50;;;;;26.65;40.24;100870.50;4941059;28;45171;-56
2023/07/12 04:25:36;;;;;;;;;1.00;1.00;;;;;26.62;40.17;100870.75;4940089;28;53428;-46
2023/07/12 04:28:02;;;;;;;;;1.75;1.00;;;;;26.59;40.32;100865.69;4940356;28;45237;-56
2023/07/12 04:30:28;;;;;;;;;1.00;1.00;;;;;26.59;40.87;100866.50;4940415;28;45288;-53
2023/07/12 04:32:53;;;;;;;;;1.00;1.00;;;;;26.60;40.83;100876.19;4939535;28;45588;-53
2023/07/12 04:35:19;;;;;;;;;1.00;1.00;;;;;26.58;40.31;100886.09;4940194;28;45414;-53
2023/07/12 04:37:49;;;;;;;;;1.00;1.00;;;;;26.54;40.29;100880.19;4940163;28;45390;-52
2023/07/12 04:40:16;;;;;;;;;1.25;1.25;;;;;26.50;40.41;100884.06;4938954;28;45238;-54
2023/07/12 04:42:42;;;;;;;;;1.75;1.00;;;;;26.47;40.68;100881.66;4939526;28;45325;-49
2023/07/12 04:45:09;;;;;;;;;2.00;2.00;;;;;26.47;40.91;100894.06;4940040;28;45459;-53
2023/07/12 04:47:35;;;;;;;;;1.00;1.00;;;;;26.47;40.29;100896.72;4939437;28;45453;-53
2023/07/12 04:50:00;;;;;;;;;2.00;1.00;;;;;26.45;40.03;100896.03;4940064;28;45412;-56
2023/07/12 04:52:25;;;;;;;;;0.00;0.00;;;;;26.41;40.18;100895.41;4939951;28;45355;-50
2023/07/12 04:54:57;;;;;;;;;1.50;1.50;;;;;26.39;40.28;100897.38;4939506;28;45438;-55
2023/07/12 04:57:22;;;;;;;;;1.00;1.00;;;;;26.34;40.03;100896.88;4940086;28;45384;-53
2023/07/12 04:59:47;;;;;;;;;2.00;1.00;;;;;26.29;40.12;100893.75;4939876;28;46971;-55
2023/07/12 05:02:13;;;;;;;;;0.75;0.75;;;;;26.17;39.93;100912.34;4939640;28;56871;-55
2023/07/12 05:04:38;;;;;;;;;2.00;1.75;;;;;26.08;40.31;100913.03;4939560;28;48862;-47
2023/07/12 05:07:03;;;;;;;;;0.00;0.00;;;;;26.00;40.40;100918.09;4938825;28;49731;-52
2023/07/12 05:09:29;;;;;;;;;1.00;1.00;;;;;25.94;39.97;100914.09;4939143;28;45489;-46
2023/07/12 05:11:54;;;;;;;;;2.00;1.25;;;;;25.88;39.96;100918.06;4938286;28;47030;-41
2023/07/12 05:14:19;;;;;;;;;3.50;1.00;;;;;25.85;40.63;100917.47;4937799;28;45577;-47
2023/07/12 05:16:45;;;;;;;;;1.00;1.00;;;;;25.84;40.70;100919.28;4938532;28;45483;-39
2023/07/12 05:19:11;;;;;;;;;1.50;1.00;;;;;25.86;40.63;100930.63;4953332;28;45569;-43
2023/07/12 05:21:36;;;;;;;;;1.00;1.00;;;;;25.87;40.44;100937.63;4939439;28;45486;-45
2023/07/12 05:24:02;;;;;;;;;1.25;1.25;;;;;25.87;40.36;100928.81;4937363;28;45532;-46
2023/07/12 05:26:27;;;;;;;;;1.50;1.00;;;;;25.87;40.46;100927.00;4938775;28;45396;-41
2023/07/12 05:28:53;;;;;;;;;2.00;1.00;;;;;25.94;40.64;100945.97;4938811;28;45335;-43
2023/07/12 05:31:18;;;;;;;;;1.50;1.00;;;;;25.96;40.26;100948.53;4937780;28;45552;-39
2023/07/12 05:33:46;;;;;;;;;1.00;1.00;;;;;25.99;40.04;100953.56;4938804;28;45291;-42
2023/07/12 05:36:13;;;;;;;;;1.00;0.75;;;;;25.99;40.20;100948.25;4938943;28;45757;-43
2023/07/12 05:38:39;;;;;;;;;0.50;0.50;;;;;26.01;40.02;100949.00;4938745;28;45566;-46
2023/07/12 05:41:04;;;;;;;;;1.00;1.00;;;;;26.05;39.72;100953.13;4938880;28;45470;-47
2023/07/12 05:43:29;;;;;;;;;1.50;1.00;;;;;26.08;40.33;100952.88;4938442;28;46282;-51
2023/07/12 05:45:58;;;;;;;;;1.00;1.00;;;;;26.07;40.11;100953.84;4938529;28;45442;-41
2023/07/12 05:48:24;;;;;;;;;1.00;1.00;;;;;26.11;39.71;100965.13;4938585;28;45281;-42
2023/07/12 05:50:54;;;;;;;;;1.25;1.25;;;;;26.11;39.79;100960.63;4938798;28;45326;-42
2023/07/12 05:53:20;;;;;;;;;1.00;1.00;;;;;26.12;39.57;100959.66;4938216;28;45393;-42
2023/07/12 05:55:45;;;;;;;;;2.75;2.75;;;;;26.13;39.65;100965.84;4938500;28;45491;-40
2023/07/12 05:58:12;;;;;;;;;1.00;1.00;;;;;26.15;39.34;100969.19;4937129;28;45453;-39
2023/07/12 06:00:37;;;;;;;;;1.75;1.75;;;;;26.14;39.31;100960.41;4938622;28;45344;-40
2023/07/12 06:03:03;;;;;;;;;1.25;1.00;;;;;26.15;39.39;100959.44;4936831;28;46358;-38
2023/07/12 06:05:28;;;;;;;;;1.50;1.00;;;;;26.15;39.07;100964.75;4938228;28;45363;-34
2023/07/12 06:07:53;;;;;;;;;3.00;1.25;;;;;26.16;39.42;100974.41;4938320;28;46574;-39
2023/07/12 06:10:19;;;;;;;;;2.50;1.00;;;;;26.18;39.49;100971.63;4939196;28;45697;-36
2023/07/12 06:12:44;;;;;;;;;1.25;1.25;;;;;26.18;39.53;100974.28;4938517;28;52974;-37
2023/07/12 06:15:10;;;;;;;;;1.00;1.00;;;;;26.20;39.54;100989.13;4938695;28;45314;-34
2023/07/12 06:17:35;;;;;;;;;1.00;1.00;;;;;26.21;39.29;100980.19;4938873;28;45233;-35
2023/07/12 06:20:00;;;;;;;;;1.25;1.00;;;;;26.21;39.21;100985.50;4938983;28;45219;-33
2023/07/12 06:22:26;;;;;;;;;1.00;1.00;;;;;26.20;39.42;100978.50;4938563;28;45360;-35
2023/07/12 06:24:51;;;;;;;;;1.00;1.00;;;;;26.20;38.88;100989.13;4938571;28;45365;-41
2023/07/12 06:27:17;;;;;;;;;2.25;1.00;;;;;26.20;38.86;100988.31;4938105;28;47929;-40
2023/07/12 06:29:42;;;;;;;;;3.00;1.00;;;;;26.20;38.96;100983.81;4938798;28;45333;-40
2023/07/12 06:32:12;;;;;;;;;1.00;1.00;;;;;26.20;38.91;100989.13;4938340;28;46206;-39
2023/07/12 06:34:38;;;;;;;;;2.50;2.50;;;;;26.18;38.74;100991.06;4938029;28;45721;-38
2023/07/12 06:37:03;;;;;;;;;4.00;1.25;;;;;26.19;38.90;100987.44;4938604;28;45527;-44
2023/07/12 06:39:29;;;;;;;;;3.25;1.50;;;;;26.20;38.80;100997.09;4938394;28;45504;-42
2023/07/12 06:41:54;;;;;;;;;3.50;2.00;;;;;26.17;38.85;101009.78;4937974;28;48295;-43
2023/07/12 06:44:19;;;;;;;;;1.00;1.00;;;;;26.13;38.85;101003.88;4938429;28;49813;-39
2023/07/12 06:46:45;;;;;;;;;1.00;1.00;;;;;26.12;38.59;101002.16;4937053;28;45388;-42
2023/07/12 06:49:13;;;;;;;;;1.00;1.00;;;;;26.14;39.15;101005.56;4938636;28;45212;-37
2023/07/12 06:51:38;;;;;;;;;3.00;1.00;;;;;26.13;38.76;101017.16;4938003;28;47168;-41
2023/07/12 06:54:03;;;;;;;;;0.75;0.75;;;;;26.14;39.06;101010.88;4938113;28;45531;-42
2023/07/12 06:56:29;;;;;;;;;1.00;1.00;;;;;26.13;38.66;101014.50;4938053;28;45266;-43
2023/07/12 06:58:54;;;;;;;;;3.25;1.00;;;;;26.13;38.75;101013.66;4938473;28;45396;-44
2023/07/12 07:01:19;;;;;;;;;2.50;1.50;;;;;26.12;38.75;101018.09;4938180;28;50886;-44
2023/07/12 07:03:45;;;;;;;;;1.25;1.25;;;;;26.11;38.71;101016.41;4937934;28;45413;-45
2023/07/12 07:06:10;;;;;;;;;3.25;1.75;;;;;26.12;38.89;101019.94;4938160;28;45418;-39
2023/07/12 07:08:35;;;;;;;;;2.25;2.25;;;;;26.08;38.89;101028.09;4937098;28;45507;-44
2023/07/12 07:11:01;;;;;;;;;1.25;1.25;;;;;26.09;38.18;101028.94;4939823;28;63869;-40
2023/07/12 07:13:26;;;;;;;;;2.25;1.75;;;;;26.06;38.36;101015.91;4941462;28;45388;-40
2023/07/12 07:15:52;;;;;;;;;1.75;0.75;;;;;26.07;38.29;101021.09;4941861;28;45569;-40
2023/07/12 07:18:17;;;;;;;;;1.25;1.25;;;;;26.06;37.93;101022.03;4940385;28;45372;-39
2023/07/12 07:20:43;;;;;;;;;1.75;1.00;;;;;26.04;38.53;101023.97;4941180;28;46776;-41
2023/07/12 07:23:10;;;;;;;;;3.00;1.00;;;;;26.04;38.12;101021.31;4941299;28;45274;-41
2023/07/12 07:25:37;;;;;;;;;1.25;1.25;;;;;26.03;38.31;101021.44;4941503;28;45500;-42
2023/07/12 07:28:02;;;;;;;;;2.25;1.00;;;;;26.03;38.31;101029.41;4940221;28;45547;-43
2023/07/12 07:30:28;;;;;;;;;1.50;1.00;;;;;26.04;37.92;101034.59;4941244;28;46049;-38
2023/07/12 07:32:54;;;;;;;;;1.00;1.00;;;;;26.02;37.59;101023.22;4941655;28;45367;-43
2023/07/12 07:35:20;;;;;;;;;1.00;1.00;;;;;26.08;37.83;101035.19;4941527;28;45465;-42
2023/07/12 07:37:48;;;;;;;;;1.00;1.00;;;;;26.10;37.91;101030.66;4940295;28;45339;-43
2023/07/12 07:40:14;;;;;;;;;2.00;1.00;;;;;26.07;37.75;101021.09;4940814;28;45598;-46
2023/07/12 07:42:40;;;;;;;;;1.00;1.00;;;;;26.12;38.04;101028.72;4941097;28;45297;-43
2023/07/12 07:45:07;;;;;;;;;0.75;0.75;;;;;26.13;37.69;101027.78;4941194;28;45386;-39
2023/07/12 07:47:33;;;;;;;;;1.00;1.00;;;;;26.15;37.70;101032.97;4941390;28;45506;-41
2023/07/12 07:49:58;;;;;;;;;1.00;1.00;;;;;26.13;37.87;101025.13;4955864;28;47261;-46
2023/07/12 07:52:24;;;;;;;;;1.00;1.00;;;;;26.11;37.91;101027.03;4941214;28;45364;-37
2023/07/12 07:54:49;;;;;;;;;2.50;2.00;;;;;26.12;37.95;101030.56;4940946;28;45301;-39
2023/07/12 07:57:14;;;;;;;;;1.00;1.00;;;;;26.10;37.52;101030.66;4941351;28;45401;-45
2023/07/12 07:59:40;;;;;;;;;2.00;1.00;;;;;26.10;37.74;101030.66;4940830;28;45472;-43
2023/07/12 08:02:08;;;;;;;;;2.50;1.75;;;;;26.10;37.60;101032.47;4940731;28;45737;-43
2023/07/12 08:04:34;;;;;;;;;1.00;1.00;;;;;26.09;37.31;101034.25;4940818;28;45278;-41
2023/07/12 08:06:59;;;;;;;;;2.50;1.50;;;;;26.05;37.75;101027.47;4940945;28;45575;-45
2023/07/12 08:09:24;;;;;;;;;1.00;1.00;;;;;26.06;37.41;101040.63;4940815;28;46108;-44
2023/07/12 08:11:50;;;;;;;;;3.00;1.00;;;;;26.05;37.51;101032.78;4955426;28;45905;-42
2023/07/12 08:14:15;;;;;;;;;2.00;0.00;;;;;26.04;37.57;101047.88;4940687;28;45386;-40
2023/07/12 08:16:41;;;;;;;;;0.00;0.00;;;;;26.02;37.39;101038.34;4939402;28;45582;-44
2023/07/12 08:19:06;;;;;;;;;2.00;1.00;;;;;26.02;36.87;101043.66;4940535;28;46127;-46
2023/07/12 08:21:31;;;;;;;;;1.75;1.00;;;;;26.01;36.65;101044.59;4939434;28;45262;-43
2023/07/12 08:23:57;;;;;;;;;0.00;0.00;;;;;25.99;37.19;101033.25;4940590;28;45277;-39
2023/07/12 08:26:23;;;;;;;;;1.00;1.00;;;;;25.97;36.99;101030.72;4941027;28;45243;-47
2023/07/12 08:28:48;;;;;;;;;1.00;1.00;;;;;25.98;37.08;101034.22;4940299;28;45534;-45
2023/07/12 08:31:14;;;;;;;;;1.00;1.00;;;;;25.98;36.86;101028.91;4940371;28;45447;-44
2023/07/12 08:33:43;;;;;;;;;0.00;0.00;;;;;25.98;36.40;101031.56;4940419;28;45289;-45
2023/07/12 20:11:28;;;;;;;;;3.25;2.00;;;;;26.49;33.27;101108.28;5344652;23;45332;-40
2023/07/12 20:13:55;;;;;;;;;3.25;2.00;;;;;26.50;33.25;101117.97;4937690;28;45356;-41
2023/07/12 20:16:23;;;;;;;;;3.50;2.00;;;;;26.51;33.14;101119.63;4936930;28;45480;-40
2023/07/12 20:18:49;;;;;;;;;2.50;2.50;;;;;26.50;33.58;101119.75;4939505;28;45793;-38
2023/07/12 20:21:15;;;;;;;;;1.50;1.50;;;;;26.51;33.43;101129.44;4940660;28;45447;-41
2023/07/12 20:23:40;;;;;;;;;1.75;1.00;;;;;26.49;33.56;101126.03;4940775;28;45322;-39
2023/07/12 20:26:06;;;;;;;;;3.50;1.00;;;;;26.50;33.80;101135.69;4940700;28;46827;-38
2023/07/12 20:28:32;;;;;;;;;2.00;2.00;;;;;26.49;33.79;101136.66;4940798;28;45243;-43
2023/07/12 20:30:59;;;;;;;;;1.00;1.00;;;;;26.47;33.97;101139.44;4940717;28;45752;-38
2023/07/12 20:33:26;;;;;;;;;2.75;2.00;;;;;26.48;33.84;101142.94;4940510;28;45385;-38
2023/07/12 20:35:52;;;;;;;;;3.00;1.00;;;;;26.46;33.20;101143.06;4938800;28;46158;-38
2023/07/12 20:38:18;;;;;;;;;1.25;1.25;;;;;26.47;33.85;101147.41;4940062;28;45371;-37
2023/07/12 20:40:45;;;;;;;;;1.50;1.50;;;;;26.47;34.10;101151.88;4940444;28;45348;-39
2023/07/12 20:43:11;;;;;;;;;2.00;2.00;;;;;26.45;33.69;101154.66;4940671;28;45223;-38
2023/07/12 20:45:38;;;;;;;;;2.75;2.75;;;;;26.47;34.05;101155.41;4940171;28;46194;-38
2023/07/12 20:48:08;;;;;;;;;2.00;2.00;;;;;26.47;34.40;101154.53;4940392;28;45706;-41
2023/07/12 20:50:36;;;;;;;;;2.00;1.00;;;;;26.46;34.36;101153.69;4939381;28;45338;-41
2023/07/12 20:53:05;;;;;;;;;1.50;1.50;;;;;26.50;33.95;101160.50;4947574;28;45558;-40
2023/07/12 20:55:31;;;;;;;;;2.00;2.00;;;;;26.51;34.14;101161.31;4962793;28;46071;-39
2023/07/12 20:57:59;;;;;;;;;3.00;1.00;;;;;26.51;34.44;101164.81;4940058;28;45408;-37
2023/07/12 21:00:24;;;;;;;;;1.50;0.25;;;;;26.48;34.54;101162.41;4958201;28;45359;-43
2023/07/12 21:02:50;;;;;;;;;3.25;1.00;;;;;26.49;34.13;101163.25;4959770;28;45349;-39
2023/07/12 21:05:17;;;;;;;;;2.50;1.00;;;;;26.48;34.05;101169.53;4959353;28;45399;-40
2023/07/12 21:07:44;;;;;;;;;1.00;1.00;;;;;26.46;33.99;101172.31;4959435;28;45166;-42
2023/07/12 21:10:11;;;;;;;;;1.00;1.00;;;;;26.45;33.99;101170.59;4959373;28;45296;-40
2023/07/12 21:12:37;;;;;;;;;2.00;2.00;;;;;26.44;34.10;101173.38;4941064;28;45363;-37
2023/07/12 21:15:02;;;;;;;;;4.00;1.25;;;;;26.42;33.94;101168.16;4940045;28;46190;-37
2023/07/12 21:17:28;;;;;;;;;1.50;1.00;;;;;26.42;34.18;101165.50;4939725;28;45384;-38
2023/07/12 21:19:55;;;;;;;;;1.00;1.00;;;;;26.42;34.33;101175.31;4939918;28;45451;-37
2023/07/12 21:22:21;;;;;;;;;1.00;1.00;;;;;26.41;33.87;101179.75;4940080;28;45266;-39
2023/07/12 21:24:46;;;;;;;;;1.50;1.00;;;;;26.39;34.13;101179.06;4939640;28;47193;-38
2023/07/12 21:27:11;;;;;;;;;1.00;1.00;;;;;26.40;34.30;101180.75;4939601;28;45423;-37
2023/07/12 21:29:37;;;;;;;;;2.00;2.00;;;;;26.38;34.09;101182.69;4938842;28;45412;-37
2023/07/12 21:32:03;;;;;;;;;2.00;2.00;;;;;26.38;34.12;101183.50;4937876;28;45371;-39
2023/07/12 21:34:28;;;;;;;;;1.50;1.50;;;;;26.38;34.17;101180.84;4938215;28;45928;-37
2023/07/12 21:36:53;;;;;;;;;2.00;2.00;;;;;26.38;34.33;101190.66;4937749;28;55149;-39
2023/07/12 21:39:18;;;;;;;;;2.00;2.00;;;;;26.35;34.42;101183.72;4938371;28;45618;-40
2023/07/12 21:41:44;;;;;;;;;2.00;2.00;;;;;26.35;34.34;101183.72;4939109;28;45550;-38
2023/07/12 21:44:09;;;;;;;;;2.00;1.25;;;;;26.35;34.17;101185.56;4954356;28;46213;-39
2023/07/12 21:46:34;;;;;;;;;2.00;2.00;;;;;26.36;34.39;101189.91;4954296;28;50647;-38
2023/07/12 21:49:00;;;;;;;;;3.50;1.25;;;;;26.34;34.07;101192.69;4939083;28;48259;-40
2023/07/12 21:51:25;;;;;;;;;1.50;1.50;;;;;26.35;34.20;101190.88;4939447;28;45627;-39
2023/07/12 21:53:54;;;;;;;;;2.25;2.25;;;;;26.35;34.42;101188.22;4938719;28;47491;-39
2023/07/12 21:56:20;;;;;;;;;2.25;2.25;;;;;26.33;34.38;101190.13;4937657;28;45753;-41
2023/07/12 21:58:46;;;;;;;;;1.25;1.25;;;;;26.34;34.46;101197.13;4939212;28;45441;-43
2023/07/12 22:01:13;;;;;;;;;1.00;1.00;;;;;26.33;34.51;101195.44;4954326;28;45420;-38
2023/07/12 22:03:39;;;;;;;;;2.00;2.00;;;;;26.31;34.19;101186.72;4938949;28;46234;-40
2023/07/12 22:06:05;;;;;;;;;1.00;1.00;;;;;26.31;34.60;101189.38;4939315;28;45430;-39
2023/07/12 22:08:38;;;;;;;;;1.50;1.50;;;;;26.31;34.61;101189.38;4939206;28;45325;-40
2023/07/12 22:11:11;;;;;;;;;1.25;1.25;;;;;26.31;34.33;101190.25;4938999;28;45518;-42
2023/07/12 22:13:36;;;;;;;;;3.00;1.25;;;;;26.32;34.64;101199.94;4939197;28;46224;-41
2023/07/12 22:16:02;;;;;;;;;2.00;2.00;;;;;26.32;34.29;101191.09;4938842;28;45338;-39
2023/07/12 22:18:27;;;;;;;;;4.00;1.00;;;;;26.34;34.67;101194.47;4938909;28;45247;-37
2023/07/12 22:20:53;;;;;;;;;3.75;2.25;;;;;26.35;34.45;101193.53;4953940;28;45235;-39
2023/07/12 22:23:18;;;;;;;;;2.50;1.50;;;;;26.35;34.34;101196.19;4937326;28;47207;-39
2023/07/12 22:25:43;;;;;;;;;2.00;2.00;;;;;26.35;34.15;101204.16;4938366;28;52508;-40
2023/07/12 22:28:09;;;;;;;;;1.00;1.00;;;;;26.34;34.77;101197.13;4939133;28;45496;-39
2023/07/12 22:30:37;;;;;;;;;1.25;1.25;;;;;26.34;34.85;101199.78;4938934;28;45611;-41
2023/07/12 22:33:04;;;;;;;;;2.50;1.50;;;;;26.33;34.82;101200.75;4938662;28;45381;-38
2023/07/12 22:35:30;;;;;;;;;2.00;1.00;;;;;26.30;34.54;101204.50;4938640;28;45303;-39
2023/07/12 22:37:57;;;;;;;;;1.75;1.00;;;;;26.31;34.42;101208.84;4938761;28;45242;-42
2023/07/12 22:40:24;;;;;;;;;2.50;2.00;;;;;26.30;34.52;101212.47;4937943;28;45323;-42
2023/07/12 22:42:50;;;;;;;;;1.75;1.00;;;;;26.30;34.18;101211.59;4938361;28;48468;-42
2023/07/12 22:45:16;;;;;;;;;1.75;1.75;;;;;26.29;34.29;101215.25;4938378;28;45773;-44
2023/07/12 22:47:42;;;;;;;;;1.25;1.25;;;;;26.28;34.31;101203.75;4936917;28;45332;-44
2023/07/12 22:50:09;;;;;;;;;2.75;2.00;;;;;26.29;34.63;101209.94;4939029;28;45333;-40
2023/07/12 22:52:35;;;;;;;;;4.00;1.50;;;;;26.29;34.44;101212.59;4938301;28;46667;-42
2023/07/12 22:55:01;;;;;;;;;2.75;1.00;;;;;26.27;34.36;101211.84;4938287;28;45262;-38